createdAt,value
2022-10-11T00:02:13.545Z,16.15
2022-10-11T00:04:40.571Z,14.32
2022-10-11T00:07:07.613Z,12.82
2022-10-11T00:09:34.703Z,14.80
2022-10-11T00:12:01.592Z,12.23
2022-10-11T00:14:28.805Z,14.68
2022-10-11T00:16:55.887Z,13.02
2022-10-11T00:19:22.950Z,18.52
2022-10-11T00:21:49.930Z,17.65
2022-10-11T00:24:17.092Z,13.48
2022-10-11T00:26:46.839Z,14.75
2022-10-11T00:29:14.496Z,12.85
2022-10-11T00:31:41.461Z,15.80
2022-10-11T00:34:10.168Z,14.48
2022-10-11T00:36:37.056Z,16.50
2022-10-11T00:39:04.621Z,16.60
2022-10-11T00:41:31.528Z,18.30
2022-10-11T00:44:25.005Z,15.63
2022-10-11T00:47:04.075Z,13.83
2022-10-11T00:49:43.088Z,19.60
2022-10-11T00:52:31.564Z,13.13
2022-10-11T00:55:10.543Z,16.17
2022-10-11T00:57:41.674Z,17.53
2022-10-11T01:00:12.060Z,14.77
2022-10-11T01:02:40.361Z,15.23
2022-10-11T01:05:28.664Z,13.23
2022-10-11T01:07:56.599Z,16.33
2022-10-11T01:10:23.572Z,19.50
2022-10-11T01:13:20.797Z,14.90
2022-10-11T01:16:04.731Z,12.35
2022-10-11T01:18:49.079Z,14.02
2022-10-11T01:21:33.566Z,14.37
2022-10-11T01:24:44.639Z,16.60
2022-10-11T01:27:32.005Z,15.80
2022-10-11T01:30:36.707Z,15.30
2022-10-11T01:33:45.564Z,17.57
2022-10-11T01:36:37.970Z,15.03
2022-10-11T01:39:21.315Z,14.67
2022-10-11T01:41:53.663Z,15.43
2022-10-11T01:44:20.871Z,13.13
2022-10-11T01:46:48.283Z,15.57
2022-10-11T01:49:15.153Z,14.90
2022-10-11T01:51:55.260Z,15.83
2022-10-11T01:55:08.618Z,16.10
2022-10-11T01:58:21.789Z,16.93
2022-10-11T02:01:33.938Z,17.90
2022-10-11T02:04:28.913Z,17.13
2022-10-11T02:07:16.412Z,14.00
2022-10-11T02:09:50.187Z,12.60
2022-10-11T02:12:47.950Z,13.57
2022-10-11T02:15:17.528Z,14.87
2022-10-11T02:17:51.479Z,13.53
2022-10-11T02:20:22.140Z,13.87
2022-10-11T02:22:57.904Z,17.37
2022-10-11T02:25:29.085Z,13.00
2022-10-11T02:28:01.098Z,13.77
2022-10-11T02:30:30.992Z,15.67
2022-10-11T02:32:59.325Z,15.67
2022-10-11T02:35:29.995Z,15.50
2022-10-11T02:38:15.829Z,17.47
2022-10-11T02:40:48.450Z,13.73
2022-10-11T02:43:28.973Z,16.35
2022-10-11T02:46:01.345Z,17.57
2022-10-11T02:48:29.472Z,15.50
2022-10-11T02:50:58.367Z,15.80
2022-10-11T02:53:26.945Z,16.93
2022-10-11T02:55:55.438Z,16.47
2022-10-11T02:58:23.605Z,18.07
2022-10-11T03:00:50.626Z,18.77
2022-10-11T03:03:17.502Z,18.43
2022-10-11T03:05:45.062Z,17.37
2022-10-11T03:08:14.704Z,18.27
2022-10-11T03:10:43.087Z,16.03
2022-10-11T03:13:10.028Z,17.47
2022-10-11T03:15:36.989Z,20.63
2022-10-11T03:18:04.007Z,18.07
2022-10-11T03:20:30.931Z,17.60
2022-10-11T03:22:57.843Z,14.97
2022-10-11T03:25:24.892Z,20.02
2022-10-11T03:27:52.345Z,18.23
2022-10-11T03:30:20.172Z,17.70
2022-10-11T03:32:47.067Z,16.60
2022-10-11T03:35:14.011Z,16.30
2022-10-11T03:37:40.869Z,17.33
2022-10-11T03:40:09.997Z,17.97
2022-10-11T03:42:37.631Z,18.47
2022-10-11T03:45:08.186Z,16.70
2022-10-11T03:47:39.541Z,18.30
2022-10-11T03:50:08.797Z,17.43
2022-10-11T03:52:36.671Z,16.07
2022-10-11T03:55:04.622Z,18.20
2022-10-11T03:57:31.535Z,18.93
2022-10-11T03:59:58.455Z,19.23
2022-10-11T04:02:25.397Z,19.40
2022-10-11T04:04:52.323Z,19.50
2022-10-11T04:07:19.338Z,20.77
2022-10-11T04:09:46.236Z,19.35
2022-10-11T04:12:13.215Z,18.30
2022-10-11T04:14:40.636Z,15.83
2022-10-11T04:17:07.540Z,16.47
2022-10-11T04:19:36.777Z,16.27
2022-10-11T04:22:05.362Z,17.00
2022-10-11T04:24:32.301Z,16.23
2022-10-11T04:26:59.191Z,14.53
2022-10-11T04:29:31.444Z,16.33
2022-10-11T04:31:59.724Z,17.75
2022-10-11T04:34:26.700Z,16.10
2022-10-11T04:36:53.581Z,16.97
2022-10-11T04:39:20.775Z,19.77
2022-10-11T04:41:47.648Z,20.70
2022-10-11T04:44:14.562Z,16.87
2022-10-11T04:46:41.511Z,18.60
2022-10-11T04:49:08.805Z,21.33
2022-10-11T04:51:35.750Z,16.67
2022-10-11T04:54:02.643Z,17.45
2022-10-11T04:56:30.657Z,19.75
2022-10-11T04:58:57.773Z,20.23
2022-10-11T05:01:24.722Z,20.13
2022-10-11T05:03:51.613Z,21.05
2022-10-11T05:06:18.773Z,17.63
2022-10-11T05:08:45.691Z,17.17
2022-10-11T05:11:16.138Z,18.83
2022-10-11T05:13:44.543Z,18.80
2022-10-11T05:16:12.706Z,15.57
2022-10-11T05:18:40.163Z,22.70
2022-10-11T05:21:17.425Z,17.67
2022-10-11T05:23:45.150Z,19.60
2022-10-11T05:26:12.204Z,21.37
2022-10-11T05:28:39.159Z,23.40
2022-10-11T05:31:06.391Z,22.60
2022-10-11T05:33:34.253Z,22.93
2022-10-11T05:36:01.321Z,18.77
2022-10-11T05:38:28.285Z,19.67
2022-10-11T05:40:55.166Z,21.20
2022-10-11T05:43:22.063Z,19.35
2022-10-11T05:45:49.894Z,22.60
2022-10-11T05:48:16.868Z,23.77
2022-10-11T05:50:43.861Z,20.50
2022-10-11T05:53:10.897Z,19.70
2022-10-11T05:55:40.127Z,21.53
2022-10-11T05:58:08.720Z,18.00
2022-10-11T06:00:38.084Z,20.53
2022-10-11T06:03:06.730Z,20.27
2022-10-11T06:05:35.245Z,21.17
2022-10-11T06:08:04.667Z,25.73
2022-10-11T06:10:31.713Z,20.13
2022-10-11T06:12:58.629Z,19.27
2022-10-11T06:15:25.611Z,21.63
2022-10-11T06:17:53.094Z,22.43
2022-10-11T06:20:20.282Z,22.90
2022-10-11T06:22:47.170Z,22.50
2022-10-11T06:25:14.053Z,23.80
2022-10-11T06:27:40.973Z,22.48
2022-10-11T06:30:08.811Z,19.90
2022-10-11T06:32:35.738Z,17.48
2022-10-11T06:35:03.481Z,20.80
2022-10-11T06:37:30.756Z,21.65
2022-10-11T06:39:57.707Z,17.98
2022-10-11T06:42:24.602Z,23.05
2022-10-11T06:44:51.719Z,22.17
2022-10-11T06:47:18.655Z,19.60
2022-10-11T06:49:45.598Z,18.73
2022-10-11T06:52:12.547Z,23.65
2022-10-11T06:54:44.575Z,19.60
2022-10-11T06:57:12.157Z,18.10
2022-10-11T06:59:39.069Z,24.63
2022-10-11T07:02:06.061Z,24.05
2022-10-11T07:04:33.991Z,22.42
2022-10-11T07:07:01.116Z,24.08
2022-10-11T07:09:28.094Z,22.08
2022-10-11T07:11:55.044Z,25.60
2022-10-11T07:14:21.910Z,25.52
2022-10-11T07:16:48.828Z,23.10
2022-10-11T07:19:15.852Z,21.92
2022-10-11T07:21:42.912Z,26.80
2022-10-11T07:24:09.893Z,19.45
2022-10-11T07:26:38.579Z,21.88
2022-10-11T07:29:08.656Z,27.27
2022-10-11T07:31:39.102Z,25.30
2022-10-11T07:34:06.077Z,26.08
2022-10-11T07:36:33.041Z,22.20
2022-10-11T07:39:00.022Z,24.95
2022-10-11T07:41:27.003Z,27.58
2022-10-11T07:43:54.990Z,24.50
2022-10-11T07:46:22.334Z,22.52
2022-10-11T07:48:52.326Z,29.25
2022-10-11T07:51:22.361Z,21.75
2022-10-11T07:53:52.464Z,28.95
2022-10-11T07:56:24.069Z,19.63
2022-10-11T07:58:57.347Z,19.95
2022-10-11T08:01:25.379Z,21.40
2022-10-11T08:03:53.724Z,18.52
2022-10-11T08:06:26.215Z,19.65
2022-10-11T08:08:53.524Z,21.33
2022-10-11T08:11:29.455Z,18.00
2022-10-11T08:13:58.130Z,23.13
2022-10-11T08:16:25.477Z,18.80
2022-10-11T08:18:54.428Z,19.75
2022-10-11T08:21:21.425Z,17.65
2022-10-11T08:23:48.442Z,18.42
2022-10-11T08:26:15.453Z,18.55
2022-10-11T08:28:42.521Z,17.33
2022-10-11T08:31:13.973Z,18.92
2022-10-11T08:33:41.283Z,16.80
2022-10-11T08:36:09.418Z,17.23
2022-10-11T08:38:37.752Z,17.20
2022-10-11T08:41:25.569Z,16.55
2022-10-11T08:44:18.642Z,16.10
2022-10-11T08:46:54.763Z,17.73
2022-10-11T08:49:29.692Z,20.90
2022-10-11T08:52:04.504Z,22.35
2022-10-11T08:54:44.829Z,17.40
2022-10-11T08:57:21.681Z,18.90
2022-10-11T08:59:57.171Z,17.45
2022-10-11T09:03:08.140Z,17.73
2022-10-11T09:05:52.745Z,20.90
2022-10-11T09:08:56.542Z,15.02
2022-10-11T09:11:49.481Z,13.88
2022-10-11T09:14:58.255Z,15.48
2022-10-11T09:18:03.606Z,12.88
2022-10-11T09:21:08.396Z,13.55
2022-10-11T09:24:04.532Z,16.63
2022-10-11T09:26:39.559Z,15.45
2022-10-11T09:29:44.156Z,14.13
2022-10-11T09:33:15.861Z,13.80
2022-10-11T09:35:50.172Z,14.48
2022-10-11T09:38:51.113Z,10.98
2022-10-11T09:41:53.688Z,14.50
2022-10-11T09:44:24.412Z,12.02
2022-10-11T09:46:55.368Z,11.73
2022-10-11T09:49:29.629Z,12.20
2022-10-11T09:52:01.010Z,11.25
2022-10-11T09:54:43.269Z,9.27
2022-10-11T09:57:32.198Z,9.35
2022-10-11T10:00:21.102Z,10.38
2022-10-11T10:02:51.574Z,12.65
2022-10-11T10:05:29.105Z,8.63
2022-10-11T10:08:09.780Z,11.95
2022-10-11T10:10:43.744Z,9.55
2022-10-11T10:13:24.133Z,10.55
2022-10-11T10:15:56.167Z,9.52
2022-10-11T10:18:33.340Z,11.02
2022-10-11T10:21:01.108Z,9.10
2022-10-11T10:23:35.021Z,9.40
2022-10-11T10:26:20.645Z,10.20
2022-10-11T10:29:07.947Z,12.50
2022-10-11T10:32:13.325Z,8.40
2022-10-11T10:34:55.184Z,10.48
2022-10-11T10:37:44.110Z,11.77
2022-10-11T10:40:32.706Z,7.82
2022-10-11T10:42:59.581Z,9.57
2022-10-11T10:45:54.313Z,10.20
2022-10-11T10:49:18.722Z,7.45
2022-10-11T10:51:55.123Z,10.13
2022-10-11T10:54:47.651Z,7.65
2022-10-11T10:58:16.331Z,6.85
2022-10-11T11:01:10.840Z,4.47
2022-10-11T11:03:57.735Z,2.75
2022-10-11T11:06:38.071Z,10.82
2022-10-11T11:10:17.319Z,3.45
2022-10-11T11:13:33.433Z,10.95
2022-10-11T11:16:20.906Z,4.35
2022-10-11T11:19:42.203Z,4.47
2022-10-11T11:22:21.140Z,6.78
2022-10-11T11:25:03.166Z,5.13
2022-10-11T11:28:13.381Z,4.63
2022-10-11T11:30:51.069Z,7.70
2022-10-11T11:33:32.671Z,9.30
2022-10-11T11:36:09.002Z,6.75
2022-10-11T11:38:48.911Z,8.80
2022-10-11T11:41:33.342Z,5.80
2022-10-11T11:44:23.803Z,5.20
2022-10-11T11:47:11.821Z,5.47
2022-10-11T11:49:45.391Z,3.63
2022-10-11T11:52:25.340Z,4.75
2022-10-11T11:55:24.748Z,3.13
2022-10-11T11:58:10.494Z,4.85
2022-10-11T12:00:58.896Z,4.22
2022-10-11T12:03:32.039Z,4.47
2022-10-11T12:06:14.320Z,5.80
2022-10-11T12:09:03.989Z,6.47
2022-10-11T12:11:57.739Z,3.65
2022-10-11T12:14:34.179Z,8.43
2022-10-11T12:17:19.576Z,10.75
2022-10-11T12:20:10.355Z,4.75
2022-10-11T12:22:51.876Z,4.88
2022-10-11T12:25:21.901Z,2.78
2022-10-11T12:27:55.009Z,6.57
2022-10-11T12:30:55.524Z,4.35
2022-10-11T12:33:52.180Z,8.40
2022-10-11T12:36:28.720Z,3.70
2022-10-11T12:39:20.589Z,9.30
2022-10-11T12:41:47.476Z,4.70
2022-10-11T12:44:30.855Z,5.80
2022-10-11T12:46:57.965Z,5.13
2022-10-11T12:49:33.730Z,7.43
2022-10-11T12:52:22.215Z,7.07
2022-10-11T12:55:26.993Z,5.93
2022-10-11T12:58:28.044Z,5.25
2022-10-11T13:00:55.737Z,6.65
2022-10-11T13:03:45.641Z,5.80
2022-10-11T13:06:29.461Z,8.60
2022-10-11T13:09:32.326Z,3.53
2022-10-11T13:12:21.520Z,4.30
2022-10-11T13:15:05.367Z,1.30
2022-10-11T13:17:38.708Z,5.25
2022-10-11T13:20:25.257Z,4.47
2022-10-11T13:22:55.618Z,4.50
2022-10-11T13:25:29.506Z,4.13
2022-10-11T13:27:59.544Z,4.88
2022-10-11T13:30:34.242Z,5.05
2022-10-11T13:33:19.767Z,6.88
2022-10-11T13:35:48.181Z,5.53
2022-10-11T13:38:26.922Z,4.60
2022-10-11T13:40:55.841Z,5.25
2022-10-11T13:43:27.481Z,8.02
2022-10-11T13:45:56.264Z,15.48
2022-10-11T13:48:25.236Z,6.80
2022-10-11T13:51:27.966Z,8.63
2022-10-11T13:54:05.121Z,6.28
2022-10-11T13:56:38.427Z,9.98
2022-10-11T13:59:05.872Z,8.07
2022-10-11T14:01:44.599Z,3.63
2022-10-11T14:04:15.550Z,4.85
2022-10-11T14:06:54.789Z,4.35
2022-10-11T14:09:35.480Z,7.45
2022-10-11T14:12:35.647Z,11.15
2022-10-11T14:15:26.430Z,7.18
2022-10-11T14:17:53.386Z,14.73
2022-10-11T14:20:30.874Z,11.68
2022-10-11T14:23:00.137Z,6.95
2022-10-11T14:25:27.028Z,11.00
2022-10-11T14:27:54.696Z,8.18
2022-10-11T14:30:25.581Z,8.30
2022-10-11T14:32:55.314Z,6.63
2022-10-11T14:35:31.713Z,8.45
2022-10-11T14:37:59.101Z,4.88
2022-10-11T14:40:30.344Z,5.47
2022-10-11T14:42:57.386Z,11.20
2022-10-11T14:45:24.428Z,7.53
2022-10-11T14:47:51.873Z,8.95
2022-10-11T14:50:47.828Z,6.35
2022-10-11T14:53:15.278Z,6.05
2022-10-11T14:55:43.167Z,12.85
2022-10-11T14:58:11.911Z,11.18
2022-10-11T15:00:39.190Z,10.48
2022-10-11T15:03:07.426Z,5.50
2022-10-11T15:05:35.427Z,10.10
2022-10-11T15:08:04.901Z,8.05
2022-10-11T15:10:38.520Z,6.03
2022-10-11T15:13:07.391Z,4.43
2022-10-11T15:15:37.555Z,5.05
2022-10-11T15:18:07.238Z,10.43
2022-10-11T15:20:41.615Z,7.55
2022-10-11T15:23:10.379Z,8.05
2022-10-11T15:25:40.201Z,10.10
2022-10-11T15:28:08.218Z,8.20
2022-10-11T15:30:41.391Z,8.30
2022-10-11T15:33:09.202Z,8.20
2022-10-11T15:35:36.100Z,8.77
2022-10-11T15:38:03.611Z,12.45
2022-10-11T15:40:35.436Z,16.10
2022-10-11T15:43:03.355Z,20.35
2022-10-11T15:45:30.762Z,21.35
2022-10-11T15:47:58.408Z,15.73
2022-10-11T15:50:34.635Z,13.85
2022-10-11T15:53:02.627Z,14.82
2022-10-11T15:55:30.835Z,14.00
2022-10-11T15:57:57.745Z,20.98
2022-10-11T16:00:25.805Z,16.10
2022-10-11T16:02:53.655Z,18.45
2022-10-11T16:05:24.329Z,20.33
2022-10-11T16:07:52.687Z,17.83
2022-10-11T16:10:20.891Z,22.85
2022-10-11T16:12:48.205Z,21.95
2022-10-11T16:15:15.606Z,33.70
2022-10-11T16:17:42.576Z,32.97
2022-10-11T16:20:09.505Z,41.22
2022-10-11T16:22:36.653Z,40.38
2022-10-11T16:25:04.877Z,58.28
2022-10-11T16:27:32.265Z,38.78
2022-10-11T16:30:00.838Z,22.10
2022-10-11T16:32:28.200Z,27.85
2022-10-11T16:34:55.143Z,17.45
2022-10-11T16:37:22.066Z,13.90
2022-10-11T16:39:48.974Z,20.50
2022-10-11T16:42:15.853Z,19.58
2022-10-11T16:44:42.742Z,26.23
2022-10-11T16:47:09.639Z,31.25
2022-10-11T16:49:37.433Z,34.17
2022-10-11T16:52:04.632Z,36.50
2022-10-11T16:54:32.191Z,37.60
2022-10-11T16:57:00.113Z,41.85
2022-10-11T16:59:27.493Z,33.83
2022-10-11T17:01:55.114Z,29.90
2022-10-11T17:04:22.371Z,22.10
2022-10-11T17:06:49.657Z,15.10
2022-10-11T17:09:17.146Z,18.67
2022-10-11T17:11:44.237Z,28.92
2022-10-11T17:14:13.211Z,32.72
2022-10-11T17:16:40.537Z,25.75
2022-10-11T17:19:12.369Z,25.77
2022-10-11T17:21:39.925Z,22.38
2022-10-11T17:24:07.592Z,23.13
2022-10-11T17:26:34.951Z,21.85
2022-10-11T17:29:02.392Z,20.73
2022-10-11T17:31:30.119Z,20.63
2022-10-11T17:34:01.351Z,24.88
2022-10-11T17:36:32.261Z,25.27
2022-10-11T17:39:21.696Z,22.45
2022-10-11T17:41:49.746Z,32.75
2022-10-11T17:44:19.451Z,31.15
2022-10-11T17:46:47.288Z,23.17
2022-10-11T17:49:14.664Z,22.98
2022-10-11T17:51:42.374Z,26.40
2022-10-11T17:54:12.785Z,28.15
2022-10-11T17:56:41.573Z,25.77
2022-10-11T17:59:15.039Z,26.83
2022-10-11T18:01:41.982Z,24.58
2022-10-11T18:04:16.255Z,24.70
2022-10-11T18:06:45.646Z,30.55
2022-10-11T18:09:15.316Z,27.48
2022-10-11T18:11:43.151Z,39.92
2022-10-11T18:14:10.249Z,44.47
2022-10-11T18:16:38.440Z,75.90
2022-10-11T18:19:09.780Z,63.00
2022-10-11T18:21:37.793Z,39.33
2022-10-11T18:24:12.993Z,34.50
2022-10-11T18:26:39.956Z,31.33
2022-10-11T18:29:07.074Z,36.95
2022-10-11T18:31:35.267Z,26.38
2022-10-11T18:34:04.337Z,26.63
2022-10-11T18:36:32.821Z,31.70
2022-10-11T18:39:04.011Z,32.78
2022-10-11T18:41:32.893Z,40.38
2022-10-11T18:44:04.225Z,36.75
2022-10-11T18:46:31.532Z,35.53
2022-10-11T18:49:01.778Z,44.40
2022-10-11T18:51:36.010Z,43.17
2022-10-11T18:54:03.342Z,42.70
2022-10-11T18:56:31.987Z,41.83
2022-10-11T18:58:59.335Z,38.60
2022-10-11T19:01:30.666Z,31.98
2022-10-11T19:04:00.184Z,31.07
2022-10-11T19:06:37.973Z,27.25
2022-10-11T19:09:07.491Z,29.27
2022-10-11T19:11:34.602Z,28.37
2022-10-11T19:14:07.104Z,30.80
2022-10-11T19:16:38.378Z,39.20
2022-10-11T19:19:06.549Z,39.17
2022-10-11T19:21:33.620Z,39.03
2022-10-11T19:24:00.576Z,40.07
2022-10-11T19:26:33.388Z,35.58
2022-10-11T19:29:14.663Z,33.97
2022-10-11T19:31:44.975Z,34.60
2022-10-11T19:34:12.354Z,30.77
2022-10-11T19:36:42.306Z,31.80
2022-10-11T19:39:14.202Z,39.20
2022-10-11T19:41:41.855Z,40.10
2022-10-11T19:44:09.778Z,46.87
2022-10-11T19:46:53.130Z,37.97
2022-10-11T19:49:24.769Z,47.33
2022-10-11T19:51:53.771Z,44.13
2022-10-11T19:54:20.720Z,41.87
2022-10-11T19:56:47.839Z,37.13
2022-10-11T19:59:15.533Z,37.53
2022-10-11T20:01:45.499Z,34.67
2022-10-11T20:04:39.432Z,38.97
2022-10-11T20:07:02.072Z,35.60
2022-10-11T20:09:30.434Z,44.27
2022-10-11T20:11:58.413Z,33.72
2022-10-11T20:14:25.421Z,40.80
2022-10-11T20:16:52.558Z,41.10
2022-10-11T20:19:19.537Z,59.87
2022-10-11T20:21:47.450Z,65.53
2022-10-11T20:24:14.411Z,65.17
2022-10-11T20:26:41.292Z,53.60
2022-10-11T20:29:08.175Z,68.47
2022-10-11T20:31:40.803Z,55.07
2022-10-11T20:34:07.963Z,51.33
2022-10-11T20:36:36.638Z,46.93
2022-10-11T20:39:05.341Z,39.87
2022-10-11T20:41:37.156Z,43.13
2022-10-11T20:44:04.802Z,43.83
2022-10-11T20:46:35.884Z,45.53
2022-10-11T20:49:09.484Z,46.50
2022-10-11T20:51:38.909Z,47.30
2022-10-11T20:54:06.143Z,43.63
2022-10-11T20:56:33.974Z,39.63
2022-10-11T20:59:01.360Z,33.93
2022-10-11T21:01:32.338Z,36.47
2022-10-11T21:04:01.405Z,36.37
2022-10-11T21:06:29.910Z,32.30
2022-10-11T21:08:59.019Z,29.93
2022-10-11T21:11:33.447Z,32.03
2022-10-11T21:14:03.501Z,29.70
2022-10-11T21:16:30.796Z,31.27
2022-10-11T21:18:59.857Z,35.13
2022-10-11T21:21:29.082Z,30.27
2022-10-11T21:23:58.737Z,39.07
2022-10-11T21:26:27.570Z,60.63
2022-10-11T21:28:54.810Z,122.40
2022-10-11T21:31:23.073Z,75.43
2022-10-11T21:33:50.237Z,61.53
2022-10-11T21:36:20.758Z,60.37
2022-10-11T21:38:48.353Z,57.87
2022-10-11T21:41:21.443Z,59.47
2022-10-11T21:43:49.061Z,50.13
2022-10-11T21:46:22.604Z,55.17
2022-10-11T21:48:50.212Z,57.00
2022-10-11T21:51:30.833Z,55.90
2022-10-11T21:54:02.366Z,56.83
2022-10-11T21:56:30.399Z,61.20
2022-10-11T21:58:57.496Z,63.23
2022-10-11T22:01:24.563Z,66.70
2022-10-11T22:03:53.890Z,60.73
2022-10-11T22:06:21.649Z,58.90
2022-10-11T22:08:50.031Z,48.33
2022-10-11T22:11:17.592Z,47.53
2022-10-11T22:13:44.800Z,34.60
2022-10-11T22:16:13.956Z,36.67
2022-10-11T22:18:41.967Z,37.53
2022-10-11T22:21:13.717Z,27.33
2022-10-11T22:23:42.039Z,31.87
2022-10-11T22:26:13.516Z,30.20
2022-10-11T22:28:40.894Z,31.10
2022-10-11T22:31:10.104Z,28.43
2022-10-11T22:33:37.156Z,26.40
2022-10-11T22:36:10.305Z,30.43
2022-10-11T22:38:40.247Z,29.00
2022-10-11T22:41:07.431Z,27.60
2022-10-11T22:43:34.301Z,25.47
2022-10-11T22:46:01.494Z,30.93
2022-10-11T22:48:28.381Z,27.00
2022-10-11T22:50:55.257Z,28.67
2022-10-11T22:53:22.292Z,27.23
2022-10-11T22:55:49.162Z,23.93
2022-10-11T22:58:16.065Z,22.67
2022-10-11T23:00:43.269Z,28.87
2022-10-11T23:03:14.932Z,28.50
2022-10-11T23:05:42.300Z,29.83
2022-10-11T23:08:09.701Z,26.70
2022-10-11T23:10:40.264Z,34.97
2022-10-11T23:13:07.357Z,45.27
2022-10-11T23:15:34.282Z,42.53
2022-10-11T23:18:01.235Z,35.60
2022-10-11T23:20:28.112Z,35.13
2022-10-11T23:22:54.995Z,36.03
2022-10-11T23:25:21.863Z,31.60
2022-10-11T23:27:48.726Z,33.37
2022-10-11T23:30:15.854Z,32.13
2022-10-11T23:32:42.769Z,30.90
2022-10-11T23:35:09.905Z,28.40
2022-10-11T23:37:37.110Z,31.27
2022-10-11T23:40:05.188Z,29.87
2022-10-11T23:42:32.058Z,37.83
2022-10-11T23:44:59.278Z,26.43
2022-10-11T23:47:26.147Z,28.03
2022-10-11T23:49:53.143Z,28.10
2022-10-11T23:52:20.035Z,29.53
2022-10-11T23:54:46.934Z,28.13
2022-10-11T23:57:13.863Z,27.60
2022-10-11T23:59:40.747Z,28.40
